createdAt,value
2017-04-12T00:00:06.066Z,0
2017-04-12T00:00:46.520Z,0
2017-04-12T00:01:26.951Z,0
2017-04-12T00:02:07.405Z,0
2017-04-12T00:02:47.871Z,0
2017-04-12T00:03:28.366Z,0
2017-04-12T00:04:08.780Z,0
2017-04-12T00:04:49.232Z,0
2017-04-12T00:05:29.661Z,0
2017-04-12T00:07:57.575Z,0
2017-04-12T00:08:38.055Z,0
2017-04-12T00:09:18.515Z,0
2017-04-12T00:09:59.006Z,0
2017-04-12T00:10:39.416Z,0
2017-04-12T00:11:19.866Z,0
2017-04-12T00:12:00.345Z,0
2017-04-12T00:14:38.462Z,0
2017-04-12T00:15:18.940Z,0
2017-04-12T00:15:59.429Z,0
2017-04-12T00:16:39.870Z,0
2017-04-12T00:17:20.311Z,0
2017-04-12T00:18:00.763Z,0
2017-04-12T00:18:41.227Z,0
2017-04-12T00:19:21.708Z,0
2017-04-12T00:21:39.544Z,0
2017-04-12T00:22:20.062Z,0
2017-04-12T00:23:00.491Z,0
2017-04-12T00:23:40.924Z,0
2017-04-12T00:24:21.346Z,0
2017-04-12T00:26:34.044Z,0
2017-04-12T00:27:14.494Z,0
2017-04-12T00:27:54.947Z,0
2017-04-12T00:28:35.412Z,0
2017-04-12T00:29:15.900Z,0
2017-04-12T00:29:56.351Z,0
2017-04-12T00:30:36.865Z,0
2017-04-12T00:31:17.321Z,0
2017-04-12T00:31:57.789Z,0
2017-04-12T00:32:38.267Z,0
2017-04-12T00:33:18.763Z,0
2017-04-12T00:33:59.233Z,0
2017-04-12T00:34:39.691Z,0
2017-04-12T00:35:20.132Z,0
2017-04-12T00:36:00.602Z,0
2017-04-12T00:36:41.044Z,0
2017-04-12T00:37:21.475Z,0
2017-04-12T00:39:59.540Z,0
2017-04-12T00:40:39.981Z,0
2017-04-12T00:41:20.454Z,0
2017-04-12T00:42:00.871Z,0
2017-04-12T00:42:41.351Z,0
2017-04-12T00:43:21.873Z,0
2017-04-12T00:44:02.259Z,0
2017-04-12T00:44:42.700Z,0
2017-04-12T00:45:23.173Z,0
2017-04-12T00:46:03.630Z,0
2017-04-12T00:46:44.081Z,0
2017-04-12T00:47:24.521Z,0
2017-04-12T00:48:04.961Z,0
2017-04-12T00:48:45.423Z,0
2017-04-12T00:49:25.868Z,0
2017-04-12T00:51:53.794Z,0
2017-04-12T00:52:34.229Z,0
2017-04-12T00:53:14.690Z,0
2017-04-12T00:55:52.757Z,0
2017-04-12T00:56:33.220Z,0
2017-04-12T00:57:13.663Z,0
2017-04-12T00:57:54.096Z,0
2017-04-12T00:58:34.564Z,0
2017-04-12T00:59:15.016Z,0
2017-04-12T00:59:55.469Z,0
2017-04-12T01:00:35.930Z,0
2017-04-12T01:01:16.395Z,0
2017-04-12T01:03:55.286Z,0
2017-04-12T01:04:35.753Z,0
2017-04-12T01:05:16.255Z,0
2017-04-12T01:05:56.729Z,0
2017-04-12T01:06:37.177Z,0
2017-04-12T01:07:17.657Z,0
2017-04-12T01:07:58.152Z,0
2017-04-12T01:08:38.619Z,0
2017-04-12T01:09:19.105Z,0
2017-04-12T01:09:59.533Z,0
2017-04-12T01:10:39.976Z,0
2017-04-12T01:11:20.441Z,0
2017-04-12T01:12:00.914Z,0
2017-04-12T01:12:41.355Z,0
2017-04-12T01:15:19.496Z,0
2017-04-12T01:15:59.975Z,0
2017-04-12T01:16:40.469Z,0
2017-04-12T01:17:20.920Z,0
2017-04-12T01:18:01.335Z,0
2017-04-12T01:18:41.797Z,0
2017-04-12T01:20:59.614Z,0
2017-04-12T01:21:40.055Z,0
2017-04-12T01:22:20.473Z,0
2017-04-12T01:24:58.540Z,0
2017-04-12T01:25:38.968Z,0
2017-04-12T01:26:19.436Z,0
2017-04-12T01:28:32.189Z,0
2017-04-12T01:29:12.664Z,0
2017-04-12T01:29:53.136Z,0
2017-04-12T01:30:33.595Z,0
2017-04-12T01:31:14.079Z,0
2017-04-12T01:31:54.505Z,0
2017-04-12T01:32:34.961Z,0
2017-04-12T01:33:15.389Z,0
2017-04-12T01:33:55.837Z,0
2017-04-12T01:36:24.073Z,0
2017-04-12T01:37:04.554Z,0
2017-04-12T01:37:44.974Z,0
2017-04-12T01:38:25.395Z,0
2017-04-12T01:39:05.888Z,0
2017-04-12T01:39:46.341Z,0
2017-04-12T01:40:26.768Z,0
2017-04-12T01:41:07.243Z,0
2017-04-12T01:41:47.726Z,0
2017-04-12T01:42:28.249Z,0
2017-04-12T01:44:46.029Z,0
2017-04-12T01:45:26.492Z,0
2017-04-12T01:46:06.954Z,0
2017-04-12T01:46:47.424Z,0
2017-04-12T01:47:27.863Z,0
2017-04-12T01:51:18.660Z,0
2017-04-12T01:51:59.135Z,0
2017-04-12T01:54:16.915Z,0
2017-04-12T01:56:54.972Z,0
2017-04-12T01:57:35.429Z,0
2017-04-12T02:02:01.069Z,0
2017-04-12T02:02:41.531Z,0
2017-04-12T02:03:21.972Z,0
2017-04-12T02:04:02.445Z,0
2017-04-12T02:04:42.895Z,0
2017-04-12T02:05:23.335Z,0
2017-04-12T02:06:03.842Z,0
2017-04-12T02:06:44.227Z,0
2017-04-12T02:07:24.673Z,0
2017-04-12T02:09:37.383Z,0
2017-04-12T02:12:05.300Z,0
2017-04-12T02:12:46.318Z,0
2017-04-12T02:13:26.764Z,0
2017-04-12T02:15:59.777Z,0
2017-04-12T02:16:40.262Z,0
2017-04-12T02:17:20.757Z,0
2017-04-12T02:18:01.199Z,0
2017-04-12T02:18:41.721Z,0
2017-04-12T02:19:22.208Z,0
2017-04-12T02:20:02.683Z,0
2017-04-12T02:20:43.144Z,0
2017-04-12T02:21:23.592Z,0
2017-04-12T02:22:04.031Z,0
2017-04-12T02:22:44.471Z,0
2017-04-12T02:23:24.935Z,0
2017-04-12T02:24:05.381Z,0
2017-04-12T02:24:45.933Z,0
2017-04-12T02:27:03.741Z,0
2017-04-12T02:27:44.241Z,0
2017-04-12T02:28:24.752Z,0
2017-04-12T02:29:05.216Z,0
2017-04-12T02:31:38.143Z,0
2017-04-12T02:32:18.597Z,0
2017-04-12T02:32:59.061Z,0
2017-04-12T02:33:39.546Z,0
2017-04-12T02:34:20.024Z,0
2017-04-12T02:35:00.494Z,0
2017-04-12T02:35:40.941Z,0
2017-04-12T02:37:53.640Z,0
2017-04-12T02:38:34.129Z,0
2017-04-12T02:39:14.582Z,0
2017-04-12T02:39:55.050Z,0
2017-04-12T02:40:35.472Z,0
2017-04-12T02:41:15.921Z,0
2017-04-12T02:41:56.376Z,0
2017-04-12T02:44:24.301Z,0
2017-04-12T02:45:04.784Z,0
2017-04-12T02:45:45.265Z,0
2017-04-12T02:46:25.723Z,0
2017-04-12T02:47:06.175Z,0
2017-04-12T02:47:46.621Z,0
2017-04-12T02:48:27.072Z,0
2017-04-12T02:49:07.479Z,0
2017-04-12T02:49:47.942Z,0
2017-04-12T02:50:28.392Z,0
2017-04-12T02:51:08.851Z,0
2017-04-12T02:53:21.596Z,0
2017-04-12T02:54:02.083Z,0
2017-04-12T02:54:42.557Z,0
2017-04-12T02:55:23.015Z,0
2017-04-12T02:56:03.446Z,0
2017-04-12T02:56:43.892Z,0
2017-04-12T02:57:24.387Z,0
2017-04-12T02:58:04.833Z,0
2017-04-12T02:58:45.292Z,0
2017-04-12T03:00:58.028Z,0
2017-04-12T03:01:38.520Z,0
2017-04-12T03:02:18.974Z,0
2017-04-12T03:02:59.459Z,0
2017-04-12T03:03:39.913Z,0
2017-04-12T03:04:20.365Z,0
2017-04-12T03:05:00.827Z,0
2017-04-12T03:05:41.277Z,0
2017-04-12T03:06:21.744Z,0
2017-04-12T03:07:02.197Z,0
2017-04-12T03:07:42.717Z,0
2017-04-12T03:08:23.199Z,0
2017-04-12T03:09:03.622Z,0
2017-04-12T03:09:44.110Z,0
2017-04-12T03:10:24.547Z,0
2017-04-12T03:13:02.634Z,0
2017-04-12T03:13:43.083Z,0
2017-04-12T03:16:21.158Z,0
2017-04-12T03:17:01.617Z,0
2017-04-12T03:17:42.099Z,0
2017-04-12T03:18:22.565Z,0
2017-04-12T03:19:02.997Z,0
2017-04-12T03:19:43.446Z,0
2017-04-12T03:20:23.916Z,0
2017-04-12T03:21:04.436Z,0
2017-04-12T03:21:44.848Z,0
2017-04-12T03:22:25.299Z,0
2017-04-12T03:23:05.726Z,0
2017-04-12T03:23:46.167Z,0
2017-04-12T03:24:26.629Z,0
2017-04-12T03:25:07.111Z,0
2017-04-12T03:25:47.536Z,0
2017-04-12T03:26:28.028Z,0
2017-04-12T03:27:08.459Z,0
2017-04-12T03:27:48.952Z,0
2017-04-12T03:28:29.389Z,0
2017-04-12T03:29:09.855Z,0
2017-04-12T03:29:50.307Z,0
2017-04-12T03:30:30.752Z,0
2017-04-12T03:31:11.205Z,0
2017-04-12T03:31:51.655Z,0
2017-04-12T03:32:32.284Z,0
2017-04-12T03:33:12.790Z,0
2017-04-12T03:33:53.224Z,0
2017-04-12T03:34:33.722Z,0
2017-04-12T03:35:14.156Z,0
2017-04-12T03:35:54.627Z,0
2017-04-12T03:36:35.094Z,0
2017-04-12T03:38:52.889Z,0
2017-04-12T03:39:33.380Z,0
2017-04-12T03:40:13.822Z,0
2017-04-12T03:40:54.258Z,0
2017-04-12T03:41:34.733Z,0
2017-04-12T03:44:02.622Z,0
2017-04-12T03:44:43.093Z,0
2017-04-12T03:45:23.538Z,0
2017-04-12T03:46:03.994Z,0
2017-04-12T03:46:44.465Z,0
2017-04-12T03:47:24.910Z,0
2017-04-12T03:48:05.360Z,0
2017-04-12T03:48:45.844Z,0
2017-04-12T03:49:26.338Z,0
2017-04-12T03:50:06.809Z,0
2017-04-12T03:50:48.138Z,0
2017-04-12T03:51:28.565Z,0
2017-04-12T03:52:08.999Z,0
2017-04-12T03:52:49.446Z,0
2017-04-12T03:53:29.920Z,0
2017-04-12T03:54:10.380Z,0
2017-04-12T03:54:50.835Z,0
2017-04-12T03:55:31.285Z,0
2017-04-12T03:56:11.796Z,0
2017-04-12T03:56:52.205Z,0
2017-04-12T03:57:32.668Z,0
2017-04-12T03:58:13.127Z,0
2017-04-12T03:58:53.630Z,0
2017-04-12T03:59:34.047Z,0
2017-04-12T04:00:14.489Z,0
2017-04-12T04:00:54.902Z,0
2017-04-12T04:03:27.886Z,0
2017-04-12T04:04:08.318Z,0
2017-04-12T04:04:48.750Z,0
2017-04-12T04:05:29.201Z,0
2017-04-12T04:06:09.647Z,0
2017-04-12T04:08:47.809Z,0
2017-04-12T04:09:28.267Z,0
2017-04-12T04:10:08.748Z,0
2017-04-12T04:10:49.235Z,0
2017-04-12T04:11:29.733Z,0
2017-04-12T04:12:10.206Z,0
2017-04-12T04:12:50.684Z,0
2017-04-12T04:13:31.164Z,0
2017-04-12T04:14:11.656Z,0
2017-04-12T04:14:52.146Z,0
2017-04-12T04:15:32.616Z,0
2017-04-12T04:16:13.097Z,0
2017-04-12T04:16:53.569Z,0
2017-04-12T04:17:34.045Z,0
2017-04-12T04:18:14.535Z,0
2017-04-12T04:18:55.016Z,0
2017-04-12T04:19:35.486Z,0
2017-04-12T04:20:15.985Z,0
2017-04-12T04:20:56.472Z,0
2017-04-12T04:21:36.951Z,0
2017-04-12T04:22:17.390Z,0
2017-04-12T04:22:57.852Z,0
2017-04-12T04:23:38.305Z,0
2017-04-12T04:24:18.782Z,0
2017-04-12T04:24:59.265Z,0
2017-04-12T04:25:39.719Z,0
2017-04-12T04:26:20.164Z,0
2017-04-12T04:27:00.648Z,0
2017-04-12T04:27:41.085Z,0
2017-04-12T04:28:21.531Z,0
2017-04-12T04:29:01.967Z,0
2017-04-12T04:29:42.457Z,0
2017-04-12T04:30:22.875Z,0
2017-04-12T04:31:03.370Z,0
2017-04-12T04:31:43.797Z,0
2017-04-12T04:32:24.235Z,0
2017-04-12T04:33:04.673Z,0
2017-04-12T04:35:22.460Z,0
2017-04-12T04:36:02.942Z,0
2017-04-12T04:36:43.414Z,0
2017-04-12T04:37:23.893Z,0
2017-04-12T04:38:04.373Z,0
2017-04-12T04:38:44.852Z,0
2017-04-12T04:39:25.340Z,5
2017-04-12T04:40:05.822Z,5
2017-04-12T04:40:46.292Z,5
2017-04-12T04:41:26.784Z,5
2017-04-12T04:42:07.259Z,5
2017-04-12T04:42:47.738Z,5
2017-04-12T04:43:28.212Z,5
2017-04-12T04:44:08.668Z,5
2017-04-12T04:46:21.414Z,5
2017-04-12T04:47:01.872Z,5
2017-04-12T04:47:42.283Z,10
2017-04-12T04:48:22.745Z,10
2017-04-12T04:49:03.193Z,10
2017-04-12T04:51:15.943Z,10
2017-04-12T04:51:56.418Z,10
2017-04-12T04:52:36.899Z,10
2017-04-12T04:53:17.378Z,15
2017-04-12T04:53:57.868Z,15
2017-04-12T04:54:38.374Z,15
2017-04-12T04:55:18.855Z,15
2017-04-12T04:55:59.329Z,15
2017-04-12T04:56:39.831Z,15
2017-04-12T04:57:20.285Z,20
2017-04-12T04:58:00.764Z,20
2017-04-12T04:58:41.285Z,20
2017-04-12T04:59:21.748Z,20
2017-04-12T05:00:02.245Z,20
2017-04-12T05:00:42.711Z,25
2017-04-12T05:01:23.190Z,25
2017-04-12T05:02:03.683Z,25
2017-04-12T05:02:44.147Z,25
2017-04-12T05:03:24.596Z,25
2017-04-12T05:04:05.064Z,30
2017-04-12T05:04:45.541Z,30
2017-04-12T05:05:25.992Z,30
2017-04-12T05:06:06.400Z,30
2017-04-12T05:06:46.847Z,30
2017-04-12T05:07:27.308Z,35
2017-04-12T05:08:07.778Z,35
2017-04-12T05:08:48.239Z,35
2017-04-12T05:11:06.031Z,40
2017-04-12T05:11:46.500Z,40
2017-04-12T05:12:26.977Z,40
2017-04-12T05:13:07.465Z,40
2017-04-12T05:13:47.943Z,40
2017-04-12T05:14:28.437Z,45
2017-04-12T05:15:08.929Z,45
2017-04-12T05:15:49.394Z,45
2017-04-12T05:16:29.864Z,45
2017-04-12T05:17:10.317Z,50
2017-04-12T05:17:50.796Z,50
2017-04-12T05:18:31.186Z,50
2017-04-12T05:19:11.683Z,50
2017-04-12T05:19:52.080Z,50
2017-04-12T05:20:32.546Z,55
2017-04-12T05:21:13.065Z,55
2017-04-12T05:21:53.484Z,55
2017-04-12T05:22:33.926Z,55
2017-04-12T05:24:51.735Z,55
2017-04-12T05:25:32.209Z,55
2017-04-12T05:26:12.692Z,55
2017-04-12T05:26:53.148Z,60
2017-04-12T05:29:31.293Z,60
2017-04-12T05:30:11.687Z,60
2017-04-12T05:30:52.175Z,60
2017-04-12T05:31:32.695Z,60
2017-04-12T05:32:13.126Z,60
2017-04-12T05:32:53.635Z,65
2017-04-12T05:33:34.095Z,65
2017-04-12T05:34:14.535Z,65
2017-04-12T05:36:42.512Z,65
2017-04-12T05:37:22.994Z,65
2017-04-12T05:38:03.475Z,65
2017-04-12T05:38:43.891Z,65
2017-04-12T05:39:24.338Z,65
2017-04-12T05:40:04.817Z,65
2017-04-12T05:44:15.178Z,65
2017-04-12T05:44:55.666Z,65
2017-04-12T05:45:36.096Z,70
2017-04-12T05:46:16.570Z,70
2017-04-12T05:46:57.072Z,75
2017-04-12T05:47:37.530Z,70
2017-04-12T05:50:05.450Z,70
2017-04-12T05:50:45.923Z,75
2017-04-12T05:51:26.406Z,75
2017-04-12T05:52:06.908Z,75
2017-04-12T05:52:47.381Z,75
2017-04-12T05:53:27.860Z,75
2017-04-12T05:54:08.334Z,75
2017-04-12T05:54:48.806Z,75
2017-04-12T05:55:29.262Z,80
2017-04-12T05:57:47.064Z,85
2017-04-12T05:58:27.548Z,85
2017-04-12T05:59:08.006Z,85
2017-04-12T06:01:41.056Z,90
2017-04-12T06:02:21.499Z,95
2017-04-12T06:03:01.931Z,95
2017-04-12T06:03:42.386Z,95
2017-04-12T06:04:22.847Z,100
2017-04-12T06:07:00.961Z,110
2017-04-12T06:07:41.453Z,110
2017-04-12T06:08:21.989Z,110
2017-04-12T06:09:02.477Z,110
2017-04-12T06:09:42.912Z,110
2017-04-12T06:10:23.417Z,120
2017-04-12T06:11:03.871Z,125
2017-04-12T06:11:44.305Z,125
2017-04-12T06:12:24.782Z,120
2017-04-12T06:14:42.614Z,115
2017-04-12T06:15:23.081Z,110
2017-04-12T06:16:03.562Z,110
2017-04-12T06:16:44.040Z,110
2017-04-12T06:17:24.510Z,115
2017-04-12T06:18:05.002Z,120
2017-04-12T06:18:45.503Z,125
2017-04-12T06:19:25.984Z,125
2017-04-12T06:20:06.486Z,135
2017-04-12T06:20:46.976Z,140
2017-04-12T06:21:27.461Z,150
2017-04-12T06:22:07.956Z,165
2017-04-12T06:22:48.432Z,180
2017-04-12T06:25:01.161Z,240
2017-04-12T06:25:41.666Z,240
2017-04-12T06:26:22.078Z,245
2017-04-12T06:27:02.638Z,250
2017-04-12T06:27:43.031Z,260
2017-04-12T06:28:23.527Z,265
2017-04-12T06:29:04.032Z,270
2017-04-12T06:29:44.503Z,275
2017-04-12T06:30:24.938Z,285
2017-04-12T06:31:05.387Z,295
2017-04-12T06:31:45.864Z,300
2017-04-12T06:32:26.319Z,265
2017-04-12T06:33:06.767Z,235
2017-04-12T06:35:19.585Z,230
2017-04-12T06:36:00.073Z,240
2017-04-12T06:36:40.568Z,250
2017-04-12T06:37:21.053Z,260
2017-04-12T06:38:01.552Z,285
2017-04-12T06:38:42.032Z,280
2017-04-12T06:39:22.544Z,300
2017-04-12T06:40:03.035Z,305
2017-04-12T06:42:20.864Z,295
2017-04-12T06:43:01.310Z,280
2017-04-12T06:43:41.755Z,265
2017-04-12T06:44:22.151Z,265
2017-04-12T06:45:02.594Z,265
2017-04-12T06:45:43.051Z,250
2017-04-12T06:48:00.886Z,245
2017-04-12T06:48:41.375Z,245
2017-04-12T06:49:21.854Z,245
2017-04-12T06:50:02.328Z,245
2017-04-12T06:50:43.375Z,245
2017-04-12T06:51:23.880Z,245
2017-04-12T06:53:41.680Z,250
2017-04-12T06:54:23.036Z,255
2017-04-12T06:56:40.813Z,260
2017-04-12T06:57:21.357Z,260
2017-04-12T06:58:01.773Z,260
2017-04-12T06:58:42.220Z,265
2017-04-12T06:59:22.678Z,265
2017-04-12T07:00:03.140Z,265
2017-04-12T07:00:43.597Z,265
2017-04-12T07:01:24.107Z,265
2017-04-12T07:02:04.546Z,270
2017-04-12T07:02:45.039Z,275
2017-04-12T07:05:18.185Z,315
2017-04-12T07:05:58.566Z,320
2017-04-12T07:06:39.073Z,320
2017-04-12T07:07:19.562Z,330
2017-04-12T07:08:00.042Z,335
2017-04-12T07:08:40.539Z,345
2017-04-12T07:09:21.020Z,360
2017-04-12T07:10:01.511Z,360
2017-04-12T07:10:41.970Z,365
2017-04-12T07:11:22.488Z,380
2017-04-12T07:12:03.016Z,385
2017-04-12T07:12:43.482Z,385
2017-04-12T07:13:24.051Z,395
2017-04-12T07:14:04.604Z,400
2017-04-12T07:14:45.169Z,405
2017-04-12T07:15:25.736Z,400
2017-04-12T07:16:06.248Z,400
2017-04-12T07:16:46.798Z,405
2017-04-12T07:17:27.345Z,410
2017-04-12T07:18:07.909Z,405
2017-04-12T07:18:48.445Z,400
2017-04-12T07:19:28.907Z,410
2017-04-12T07:20:09.427Z,425
2017-04-12T07:20:49.915Z,430
2017-04-12T07:23:28.215Z,510
2017-04-12T07:24:08.759Z,535
2017-04-12T07:24:49.181Z,550
2017-04-12T07:25:29.683Z,560
2017-04-12T07:28:07.821Z,640
2017-04-12T07:28:48.246Z,645
2017-04-12T07:29:28.743Z,670
2017-04-12T07:30:09.203Z,685
2017-04-12T07:30:49.659Z,690
2017-04-12T07:31:30.133Z,705
2017-04-12T07:32:11.578Z,700
2017-04-12T07:32:51.982Z,720
2017-04-12T07:33:32.467Z,705
2017-04-12T07:34:12.912Z,730
2017-04-12T07:34:53.447Z,760
2017-04-12T07:35:33.893Z,810
2017-04-12T07:36:14.340Z,865
2017-04-12T07:36:54.931Z,925
2017-04-12T07:37:35.887Z,940
2017-04-12T07:38:16.298Z,930
2017-04-12T07:38:56.702Z,980
2017-04-12T07:39:37.189Z,1020
2017-04-12T07:40:17.769Z,1010
2017-04-12T07:40:58.122Z,995
2017-04-12T07:41:38.542Z,975
2017-04-12T07:42:18.993Z,985
2017-04-12T07:42:59.456Z,980
2017-04-12T07:45:18.365Z,980
2017-04-12T07:45:58.833Z,995
2017-04-12T07:46:39.292Z,1005
2017-04-12T07:47:19.791Z,1030
2017-04-12T07:48:00.304Z,995
2017-04-12T07:48:40.792Z,1025
2017-04-12T07:49:21.282Z,1010
2017-04-12T07:50:01.800Z,1055
2017-04-12T07:50:42.351Z,1035
2017-04-12T07:51:23.748Z,1005
2017-04-12T07:52:04.216Z,975
2017-04-12T07:52:44.707Z,980
2017-04-12T07:53:25.167Z,940
2017-04-12T07:54:05.633Z,945
2017-04-12T07:54:46.134Z,955
2017-04-12T07:55:26.607Z,980
2017-04-12T07:56:07.061Z,980
2017-04-12T07:56:47.566Z,975
2017-04-12T07:57:28.827Z,905
2017-04-12T07:58:09.402Z,960
2017-04-12T07:58:49.872Z,985
2017-04-12T07:59:30.430Z,860
2017-04-12T08:00:10.959Z,840
2017-04-12T08:00:51.440Z,815
2017-04-12T08:01:31.981Z,935
2017-04-12T08:02:12.559Z,930
2017-04-12T08:02:53.028Z,955
2017-04-12T08:03:33.568Z,1000
2017-04-12T08:06:01.527Z,910
2017-04-12T08:06:42.019Z,910
2017-04-12T08:07:22.484Z,890
2017-04-12T08:08:02.979Z,905
2017-04-12T08:08:43.478Z,930
2017-04-12T08:09:23.932Z,940
2017-04-12T08:10:04.441Z,865
2017-04-12T08:10:44.874Z,865
2017-04-12T08:11:25.366Z,830
2017-04-12T08:12:05.861Z,810
2017-04-12T08:12:46.349Z,780
2017-04-12T08:13:26.960Z,765
2017-04-12T08:14:07.418Z,710
2017-04-12T08:14:47.962Z,660
2017-04-12T08:17:00.953Z,630
2017-04-12T08:17:41.534Z,610
2017-04-12T08:18:21.975Z,600
2017-04-12T08:19:02.514Z,595
2017-04-12T08:19:42.943Z,600
2017-04-12T08:20:23.465Z,605
2017-04-12T08:21:06.095Z,610
2017-04-12T08:21:46.609Z,625
2017-04-12T08:22:27.211Z,620
2017-04-12T08:25:05.445Z,725
2017-04-12T08:25:46.003Z,740
2017-04-12T08:26:26.576Z,740
2017-04-12T08:27:07.053Z,685
2017-04-12T08:27:47.569Z,670
2017-04-12T08:28:28.157Z,645
2017-04-12T08:29:08.662Z,635
2017-04-12T08:29:49.205Z,630
2017-04-12T08:30:29.792Z,625
2017-04-12T08:31:10.342Z,630
2017-04-12T08:31:50.817Z,625
2017-04-12T08:34:03.579Z,695
2017-04-12T08:34:44.083Z,700
2017-04-12T08:35:24.539Z,715
2017-04-12T08:36:05.163Z,715
2017-04-12T08:36:45.705Z,700
2017-04-12T08:37:26.335Z,725
2017-04-12T08:38:06.806Z,720
2017-04-12T08:40:19.697Z,760
2017-04-12T08:41:00.260Z,790
2017-04-12T08:41:40.813Z,795
2017-04-12T08:44:18.980Z,1130
2017-04-12T08:44:59.490Z,1185
2017-04-12T08:45:40.071Z,1265
2017-04-12T08:46:20.644Z,1410
2017-04-12T08:47:01.213Z,1495
2017-04-12T08:47:41.752Z,1620
2017-04-12T08:48:22.286Z,1710
2017-04-12T08:49:02.772Z,1710
2017-04-12T08:49:43.315Z,1580
2017-04-12T08:50:23.838Z,1585
2017-04-12T08:51:04.452Z,1610
2017-04-12T08:51:45.846Z,1705
2017-04-12T08:52:26.406Z,1670
2017-04-12T08:53:07.055Z,1695
2017-04-12T08:53:47.703Z,1740
2017-04-12T08:54:28.303Z,1740
2017-04-12T08:55:08.805Z,1820
2017-04-12T08:55:49.322Z,1835
2017-04-12T08:56:29.855Z,1880
2017-04-12T08:57:10.407Z,1845
2017-04-12T08:57:50.971Z,1865
2017-04-12T08:58:31.470Z,1855
2017-04-12T08:59:12.794Z,1850
2017-04-12T08:59:53.404Z,1755
2017-04-12T09:00:33.954Z,1730
2017-04-12T09:01:14.524Z,1750
2017-04-12T09:03:47.736Z,1785
2017-04-12T09:04:28.641Z,1780
2017-04-12T09:05:09.250Z,1820
2017-04-12T09:05:49.809Z,1830
2017-04-12T09:06:30.693Z,1815
2017-04-12T09:07:11.249Z,1775
2017-04-12T09:07:51.791Z,1715
2017-04-12T09:10:29.976Z,800
2017-04-12T09:11:11.291Z,705
2017-04-12T09:13:44.558Z,620
2017-04-12T09:14:25.150Z,610
2017-04-12T09:15:05.715Z,610
2017-04-12T09:15:46.310Z,625
2017-04-12T09:16:26.894Z,640
2017-04-12T09:17:07.499Z,670
2017-04-12T09:17:48.029Z,700
2017-04-12T09:18:28.606Z,865
2017-04-12T09:19:09.174Z,1285
2017-04-12T09:19:49.762Z,1780
2017-04-12T09:20:30.288Z,2000
2017-04-12T09:21:10.886Z,1995
2017-04-12T09:21:51.462Z,2175
2017-04-12T09:22:31.979Z,2230
2017-04-12T09:23:12.530Z,2290
2017-04-12T09:23:53.127Z,2345
2017-04-12T09:24:33.704Z,2370
2017-04-12T09:25:14.282Z,2320
2017-04-12T09:25:54.792Z,2270
2017-04-12T09:26:35.428Z,2210
2017-04-12T09:27:16.017Z,2250
2017-04-12T09:27:56.638Z,2365
2017-04-12T09:28:37.145Z,2350
2017-04-12T09:29:17.763Z,2380
2017-04-12T09:29:58.312Z,2495
2017-04-12T09:30:38.806Z,2545
2017-04-12T09:31:19.365Z,2500
2017-04-12T09:32:00.626Z,2565
2017-04-12T09:32:42.230Z,2640
2017-04-12T09:33:22.818Z,2655
2017-04-12T09:34:03.436Z,2555
2017-04-12T09:34:44.002Z,2505
2017-04-12T09:35:24.645Z,2545
2017-04-12T09:36:05.179Z,2595
2017-04-12T09:36:45.779Z,2635
2017-04-12T09:37:26.310Z,2630
2017-04-12T09:38:06.962Z,2580
2017-04-12T09:38:47.461Z,2515
2017-04-12T09:39:28.083Z,2625
2017-04-12T09:40:08.605Z,2725
2017-04-12T09:40:49.046Z,2690
2017-04-12T09:41:29.533Z,2635
2017-04-12T09:42:10.066Z,2520
2017-04-12T09:42:50.556Z,2360
2017-04-12T09:43:31.004Z,2320
2017-04-12T09:44:11.512Z,2300
2017-04-12T09:44:52.041Z,2415
2017-04-12T09:45:32.637Z,2435
2017-04-12T09:46:14.335Z,2515
2017-04-12T09:46:54.822Z,2485
2017-04-12T09:47:35.306Z,2505
2017-04-12T09:48:15.937Z,2545
2017-04-12T09:48:56.447Z,2565
2017-04-12T09:49:37.030Z,2540
2017-04-12T09:50:17.593Z,2415
2017-04-12T09:50:58.113Z,2360
2017-04-12T09:51:38.547Z,2640
2017-04-12T09:52:19.019Z,2820
2017-04-12T09:52:59.626Z,2875
2017-04-12T09:53:40.142Z,2915
2017-04-12T09:54:20.688Z,2855
2017-04-12T09:55:01.335Z,2805
2017-04-12T09:55:41.924Z,2785
2017-04-12T09:56:22.458Z,2745
2017-04-12T09:57:03.048Z,2760
2017-04-12T09:57:43.769Z,2840
2017-04-12T09:58:24.353Z,2870
2017-04-12T09:59:04.880Z,2735
2017-04-12T09:59:45.736Z,2670
2017-04-12T10:00:30.069Z,2660
2017-04-12T10:01:10.487Z,2705
2017-04-12T10:01:51.018Z,2845
2017-04-12T10:02:32.215Z,2910
2017-04-12T10:03:12.693Z,2900
2017-04-12T10:03:53.189Z,2915
2017-04-12T10:04:33.659Z,2925
2017-04-12T10:05:14.214Z,2960
2017-04-12T10:05:54.784Z,3000
2017-04-12T10:06:35.599Z,2620
2017-04-12T10:07:16.141Z,1705
2017-04-12T10:07:56.675Z,860
2017-04-12T10:08:37.168Z,675
2017-04-12T10:09:17.691Z,640
2017-04-12T10:09:58.192Z,605
2017-04-12T10:10:38.647Z,540
2017-04-12T10:12:56.582Z,425
2017-04-12T10:13:37.128Z,415
2017-04-12T10:14:17.653Z,405
2017-04-12T10:14:58.339Z,405
2017-04-12T10:15:38.909Z,400
2017-04-12T10:16:19.599Z,400
2017-04-12T10:17:00.338Z,400
2017-04-12T10:17:41.068Z,400
2017-04-12T10:18:21.787Z,400
2017-04-12T10:19:02.289Z,400
2017-04-12T10:19:42.880Z,400
2017-04-12T10:20:23.316Z,405
2017-04-12T10:21:03.742Z,410
2017-04-12T10:21:44.238Z,415
2017-04-12T10:22:24.741Z,425
2017-04-12T10:23:05.430Z,425
2017-04-12T10:23:45.999Z,435
2017-04-12T10:24:26.452Z,450
2017-04-12T10:25:06.965Z,465
2017-04-12T10:25:47.463Z,525
2017-04-12T10:26:27.900Z,1265
2017-04-12T10:27:08.351Z,2240
2017-04-12T10:27:49.764Z,2990
2017-04-12T10:28:30.233Z,2990
2017-04-12T10:29:10.674Z,3005
2017-04-12T10:31:29.457Z,3150
2017-04-12T10:32:09.992Z,3205
2017-04-12T10:32:50.463Z,3235
2017-04-12T10:33:30.938Z,3310
2017-04-12T10:34:11.424Z,3355
2017-04-12T10:34:51.927Z,3395
2017-04-12T10:35:32.514Z,3375
2017-04-12T10:36:12.978Z,3400
2017-04-12T10:36:53.487Z,3200
2017-04-12T10:39:11.575Z,3225
2017-04-12T10:39:51.952Z,3310
2017-04-12T10:40:33.365Z,3370
2017-04-12T10:41:13.880Z,3300
2017-04-12T10:41:54.351Z,3265
2017-04-12T10:42:34.888Z,3190
2017-04-12T10:43:15.347Z,3070
2017-04-12T10:43:56.019Z,3055
2017-04-12T10:44:37.264Z,3205
2017-04-12T10:45:17.767Z,3305
2017-04-12T10:45:58.286Z,3180
2017-04-12T10:46:38.770Z,3220
2017-04-12T10:47:19.262Z,3195
2017-04-12T10:47:59.773Z,3195
2017-04-12T10:48:40.235Z,3100
2017-04-12T10:49:20.743Z,3080
2017-04-12T10:50:01.301Z,3190
2017-04-12T10:50:41.955Z,3295
2017-04-12T10:51:22.476Z,3360
2017-04-12T10:52:03.074Z,3405
2017-04-12T10:52:43.599Z,3355
2017-04-12T10:53:24.104Z,3360
2017-04-12T10:54:04.571Z,3420
2017-04-12T10:54:45.036Z,3430
2017-04-12T10:57:03.151Z,3340
2017-04-12T10:57:43.712Z,3190
2017-04-12T10:58:24.344Z,2355
2017-04-12T10:59:04.907Z,2510
2017-04-12T10:59:46.861Z,2200
2017-04-12T11:00:27.559Z,2470
2017-04-12T11:01:08.149Z,2475
2017-04-12T11:03:43.289Z,2015
2017-04-12T11:04:23.745Z,2375
2017-04-12T11:05:05.058Z,2450
2017-04-12T11:05:45.498Z,3010
2017-04-12T11:06:26.139Z,2790
2017-04-12T11:07:06.974Z,3090
2017-04-12T11:07:48.773Z,3285
2017-04-12T11:10:17.029Z,4400
2017-04-12T11:10:57.594Z,4280
2017-04-12T11:14:43.707Z,4210
2017-04-12T11:15:24.223Z,4320
2017-04-12T11:16:04.714Z,3840
2017-04-12T11:16:45.170Z,4220
2017-04-12T11:17:25.644Z,4060
2017-04-12T11:18:06.142Z,4110
2017-04-12T11:18:46.771Z,3900
2017-04-12T11:19:27.431Z,3220
2017-04-12T11:20:08.029Z,2680
2017-04-12T11:20:48.497Z,2575
2017-04-12T11:21:28.946Z,1675
2017-04-12T11:22:09.394Z,2245
2017-04-12T11:22:49.824Z,1365
2017-04-12T11:23:30.951Z,1215
2017-04-12T11:24:11.450Z,1220
2017-04-12T11:24:51.969Z,1340
2017-04-12T11:25:32.781Z,1275
2017-04-12T11:26:13.299Z,1315
2017-04-12T11:26:53.741Z,1470
2017-04-12T11:27:34.224Z,1350
2017-04-12T11:28:14.727Z,1980
2017-04-12T11:28:55.189Z,2665
2017-04-12T11:29:35.685Z,2740
2017-04-12T11:30:16.133Z,3265
2017-04-12T11:30:56.604Z,2860
2017-04-12T11:31:37.052Z,3445
2017-04-12T11:32:17.478Z,3530
2017-04-12T11:32:57.963Z,3410
2017-04-12T11:33:38.520Z,3350
2017-04-12T11:34:19.055Z,3320
2017-04-12T11:35:00.197Z,1580
2017-04-12T11:35:40.720Z,1675
2017-04-12T11:36:21.265Z,2205
2017-04-12T11:37:01.791Z,2650
2017-04-12T11:37:42.252Z,2120
2017-04-12T11:38:22.832Z,1390
2017-04-12T11:39:03.374Z,2505
2017-04-12T11:39:43.789Z,2710
2017-04-12T11:40:24.287Z,2560
2017-04-12T11:41:04.968Z,1790
2017-04-12T11:41:45.951Z,1015
2017-04-12T11:44:04.578Z,685